TimeMST,TemperatureF,Dew PointF,Humidity,Sea Level PressureIn,VisibilityMPH,Wind Direction,Wind SpeedMPH,Gust SpeedMPH,PrecipitationIn,Events,Conditions,WindDirDegrees,DateUTC
12:56 AM,5.0,-0.9,76,30.22,10.0,SSE,4.6,-,N/A,,Overcast,160,2012-12-30 07:56:00
1:56 AM,6.1,-0.0,76,30.22,10.0,SE,4.6,-,N/A,,Overcast,130,2012-12-30 08:56:00
2:56 AM,10.0,3.9,76,30.23,10.0,Calm,Calm,-,N/A,,Overcast,0,2012-12-30 09:56:00
3:56 AM,12.0,6.1,77,30.24,7.0,Calm,Calm,-,0.00,,Overcast,0,2012-12-30 10:56:00
4:56 AM,12.9,8.1,81,30.25,2.5,Calm,Calm,-,0.00,Snow,Light Snow,0,2012-12-30 11:56:00
5:04 AM,12.2,8.6,85,30.03,2.5,Calm,Calm,-,0.00,Snow,Light Snow,0,2012-12-30 12:04:00
5:26 AM,12.2,8.6,85,30.03,2.5,Calm,Calm,-,0.00,Snow,Light Snow,0,2012-12-30 12:26:00
5:33 AM,14.0,8.6,79,30.03,3.0,Calm,Calm,-,0.00,Snow,Light Snow,0,2012-12-30 12:33:00
5:50 AM,14.0,8.6,79,30.04,2.5,Calm,Calm,-,0.00,Snow,Light Snow,0,2012-12-30 12:50:00
5:56 AM,12.9,9.0,84,30.26,2.0,Calm,Calm,-,0.00,Snow,Light Snow,0,2012-12-30 12:56:00
6:03 AM,12.2,10.4,92,30.04,1.5,Calm,Calm,-,0.00,Snow,Light Snow,0,2012-12-30 13:03:00
6:17 AM,12.2,8.6,85,30.04,3.0,Calm,Calm,-,N/A,Snow,Light Snow,0,2012-12-30 13:17:00
6:24 AM,12.2,8.6,85,30.04,4.0,Calm,Calm,-,0.00,Snow,Light Snow,0,2012-12-30 13:24:00
6:52 AM,12.2,8.6,85,30.04,4.0,Calm,Calm,-,0.00,Snow,Light Snow,0,2012-12-30 13:52:00
6:56 AM,12.0,8.1,84,30.28,3.0,Calm,Calm,-,0.00,Snow,Light Snow,0,2012-12-30 13:56:00
7:24 AM,12.2,8.6,85,30.05,8.0,Calm,Calm,-,0.00,,Overcast,0,2012-12-30 14:24:00
7:56 AM,10.0,7.0,87,30.30,4.0,Calm,Calm,-,0.00,,Overcast,0,2012-12-30 14:56:00
8:05 AM,10.4,6.8,85,30.05,2.5,NE,3.5,-,0.00,Snow,Light Snow,50,2012-12-30 15:05:00
8:21 AM,10.4,6.8,85,30.05,5.0,Calm,Calm,-,0.00,,Mostly Cloudy,0,2012-12-30 15:21:00
8:35 AM,10.4,6.8,85,30.05,6.0,Calm,Calm,-,0.00,,Mostly Cloudy,0,2012-12-30 15:35:00
8:56 AM,10.0,7.0,87,30.29,3.0,Calm,Calm,-,0.00,,Overcast,0,2012-12-30 15:56:00
9:56 AM,10.9,10.0,96,30.31,7.0,Calm,Calm,-,N/A,,Mostly Cloudy,0,2012-12-30 16:56:00
10:14 AM,12.2,10.4,92,30.08,8.0,Calm,Calm,-,N/A,,Overcast,0,2012-12-30 17:14:00
10:56 AM,14.0,10.0,84,30.31,9.0,Calm,Calm,-,N/A,,Overcast,0,2012-12-30 17:56:00
11:32 AM,15.8,10.4,79,30.08,10.0,Calm,Calm,-,N/A,,Overcast,0,2012-12-30 18:32:00
11:56 AM,17.1,10.9,77,30.30,10.0,Calm,Calm,-,N/A,,Overcast,0,2012-12-30 18:56:00
12:56 PM,16.0,10.9,81,30.28,10.0,NW,3.5,-,N/A,,Partly Cloudy,320,2012-12-30 19:56:00
1:56 PM,17.1,10.0,74,30.27,10.0,Calm,Calm,-,N/A,,Clear,0,2012-12-30 20:56:00
2:56 PM,18.0,10.0,71,30.26,10.0,Calm,Calm,-,N/A,,Clear,0,2012-12-30 21:56:00
3:56 PM,15.1,10.9,84,30.27,10.0,Calm,Calm,-,N/A,,Clear,0,2012-12-30 22:56:00
4:56 PM,12.9,10.0,88,30.27,9.0,SE,4.6,-,N/A,,Clear,130,2012-12-30 23:56:00
5:56 PM,1.0,-2.9,83,30.32,5.0,East,5.8,-,N/A,,Clear,90,2012-12-31 00:56:00
6:56 PM,6.1,1.9,83,30.30,10.0,SE,6.9,-,N/A,,Clear,130,2012-12-31 01:56:00
7:56 PM,6.1,1.0,80,30.30,10.0,South,8.1,-,N/A,,Clear,170,2012-12-31 02:56:00
8:56 PM,1.9,-2.9,80,30.32,10.0,Calm,Calm,-,N/A,,Clear,0,2012-12-31 03:56:00
9:56 PM,-0.9,-5.1,83,30.33,10.0,SSE,6.9,-,N/A,,Clear,150,2012-12-31 04:56:00
10:56 PM,3.0,-2.0,80,30.31,10.0,SE,8.1,-,N/A,,Overcast,130,2012-12-31 05:56:00
11:56 PM,9.0,3.0,77,30.29,10.0,SSE,3.5,-,N/A,,Overcast,160,2012-12-31 06:56:00